createdAt,value
2019-02-15T00:02:07.246Z,47.63
2019-02-15T00:04:42.371Z,48.50
2019-02-15T00:07:19.400Z,48.73
2019-02-15T00:09:52.222Z,46.73
2019-02-15T00:12:27.226Z,46.83
2019-02-15T00:15:00.784Z,46.03
2019-02-15T00:17:34.452Z,45.47
2019-02-15T00:20:08.252Z,45.77
2019-02-15T00:22:41.717Z,46.17
2019-02-15T00:25:15.274Z,44.07
2019-02-15T00:27:50.081Z,44.57
2019-02-15T00:30:23.725Z,47.03
2019-02-15T00:32:57.568Z,46.10
2019-02-15T00:35:31.681Z,47.53
2019-02-15T00:38:07.168Z,47.53
2019-02-15T00:40:42.350Z,46.77
2019-02-15T00:43:22.089Z,46.87
2019-02-15T00:45:51.221Z,44.00
2019-02-15T00:48:24.780Z,47.90
2019-02-15T00:50:58.387Z,47.43
2019-02-15T00:53:31.956Z,49.97
2019-02-15T00:56:06.820Z,51.08
2019-02-15T00:58:40.402Z,54.30
2019-02-15T01:01:13.808Z,53.13
2019-02-15T01:03:47.666Z,56.93
2019-02-15T01:06:22.465Z,58.30
2019-02-15T01:08:56.320Z,57.15
2019-02-15T01:11:30.006Z,57.53
2019-02-15T01:14:03.914Z,53.77
2019-02-15T01:16:37.468Z,51.63
2019-02-15T01:19:11.333Z,53.02
2019-02-15T01:21:45.304Z,55.67
2019-02-15T01:24:19.011Z,55.87
2019-02-15T01:26:53.843Z,56.77
2019-02-15T01:29:27.569Z,57.90
2019-02-15T01:32:02.192Z,58.97
2019-02-15T01:34:36.793Z,59.40
2019-02-15T01:37:10.597Z,59.23
2019-02-15T01:39:44.271Z,56.57
2019-02-15T01:42:18.194Z,59.20
2019-02-15T01:44:52.364Z,59.93
2019-02-15T01:47:25.988Z,59.53
2019-02-15T01:49:59.947Z,61.48
2019-02-15T01:52:34.301Z,58.35
2019-02-15T01:55:09.104Z,58.00
2019-02-15T01:57:44.370Z,57.30
2019-02-15T02:00:19.965Z,55.47
2019-02-15T02:02:53.804Z,54.53
2019-02-15T02:05:27.474Z,55.93
2019-02-15T02:08:02.728Z,54.38
2019-02-15T02:10:37.463Z,56.07
2019-02-15T02:13:14.687Z,52.57
2019-02-15T02:15:48.509Z,51.57
2019-02-15T02:18:22.583Z,46.00
2019-02-15T02:20:56.276Z,46.63
2019-02-15T02:23:30.182Z,49.63
2019-02-15T02:26:04.044Z,50.40
2019-02-15T02:28:37.876Z,51.60
2019-02-15T02:31:11.500Z,53.27
2019-02-15T02:33:45.321Z,52.47
2019-02-15T02:36:19.236Z,53.27
2019-02-15T02:38:52.826Z,51.63
2019-02-15T02:41:26.457Z,50.40
2019-02-15T02:44:00.303Z,48.57
2019-02-15T02:46:33.876Z,48.65
2019-02-15T02:49:10.443Z,45.70
2019-02-15T02:51:44.078Z,50.07
2019-02-15T02:54:17.800Z,50.65
2019-02-15T02:56:51.469Z,49.27
2019-02-15T02:59:24.922Z,51.60
2019-02-15T03:01:58.468Z,52.57
2019-02-15T03:04:32.063Z,51.63
2019-02-15T03:07:15.163Z,54.07
2019-02-15T03:15:37.725Z,52.17
2019-02-15T03:18:12.422Z,52.17
2019-02-15T03:20:46.306Z,52.80
2019-02-15T03:23:19.887Z,55.87
2019-02-15T03:25:53.348Z,57.33
2019-02-15T03:28:26.839Z,57.37
2019-02-15T03:31:01.498Z,57.45
2019-02-15T03:33:37.799Z,55.57
2019-02-15T03:36:13.447Z,52.05
2019-02-15T03:38:48.694Z,51.90
2019-02-15T03:41:25.224Z,54.70
2019-02-15T03:44:01.475Z,50.43
2019-02-15T03:46:37.017Z,52.43
2019-02-15T03:49:12.855Z,50.03
2019-02-15T03:51:47.800Z,49.33
2019-02-15T03:54:22.470Z,50.43
2019-02-15T03:56:57.614Z,46.70
2019-02-15T03:59:32.168Z,48.83
2019-02-15T04:02:06.052Z,48.37
2019-02-15T04:04:41.454Z,50.47
2019-02-15T04:07:15.828Z,50.20
2019-02-15T04:09:49.699Z,49.93
2019-02-15T04:12:28.008Z,46.67
2019-02-15T04:15:06.801Z,44.25
2019-02-15T04:17:41.575Z,44.63
2019-02-15T04:20:16.799Z,45.77
2019-02-15T04:22:50.767Z,44.67
2019-02-15T04:25:34.240Z,40.43
2019-02-15T04:28:10.296Z,41.30
2019-02-15T04:30:44.629Z,41.68
2019-02-15T04:33:21.315Z,39.60
2019-02-15T04:35:57.309Z,43.20
2019-02-15T04:38:33.929Z,41.05
2019-02-15T04:41:10.962Z,40.65
2019-02-15T04:43:45.534Z,37.50
2019-02-15T04:46:20.962Z,38.30
2019-02-15T04:49:02.225Z,38.53
2019-02-15T04:51:34.951Z,38.00
2019-02-15T04:54:13.543Z,35.05
2019-02-15T04:56:49.240Z,34.03
2019-02-15T04:59:25.327Z,36.15
2019-02-15T05:01:59.717Z,37.83
2019-02-15T05:04:35.725Z,39.90
2019-02-15T05:07:10.228Z,37.17
2019-02-15T05:09:46.533Z,38.00
2019-02-15T05:12:20.999Z,39.13
2019-02-15T05:14:56.218Z,35.50
2019-02-15T05:17:30.467Z,37.25
2019-02-15T05:20:04.909Z,37.60
2019-02-15T05:22:39.459Z,33.67
2019-02-15T05:25:14.064Z,30.48
2019-02-15T05:27:48.627Z,28.03
2019-02-15T05:30:22.950Z,33.40
2019-02-15T05:32:57.235Z,35.90
2019-02-15T05:35:31.808Z,34.67
2019-02-15T05:38:07.366Z,33.17
2019-02-15T05:40:41.967Z,32.03
2019-02-15T05:43:16.336Z,32.80
2019-02-15T05:45:50.776Z,36.53
2019-02-15T05:48:28.118Z,37.33
2019-02-15T05:51:02.595Z,38.00
2019-02-15T05:53:36.965Z,39.47
2019-02-15T05:56:11.340Z,39.38
2019-02-15T05:58:47.201Z,38.63
2019-02-15T06:01:21.613Z,36.47
2019-02-15T06:03:55.696Z,35.00
2019-02-15T06:06:30.140Z,35.43
2019-02-15T06:09:04.482Z,36.70
2019-02-15T06:11:38.948Z,38.30
2019-02-15T06:14:13.533Z,40.07
2019-02-15T06:16:47.837Z,37.93
2019-02-15T06:19:25.018Z,41.23
2019-02-15T06:22:01.048Z,42.47
2019-02-15T06:24:35.486Z,40.23
2019-02-15T06:27:11.943Z,39.03
2019-02-15T06:29:46.286Z,39.10
2019-02-15T06:32:20.762Z,39.80
2019-02-15T06:34:55.024Z,41.60
2019-02-15T06:37:29.743Z,41.90
2019-02-15T06:40:04.206Z,39.38
2019-02-15T06:42:38.597Z,37.57
2019-02-15T06:45:13.014Z,38.83
2019-02-15T06:47:47.417Z,37.83
2019-02-15T06:50:21.875Z,36.30
2019-02-15T06:52:55.963Z,35.20
2019-02-15T06:55:30.500Z,36.50
2019-02-15T06:58:05.025Z,34.20
2019-02-15T07:00:39.495Z,37.00
2019-02-15T07:03:14.042Z,37.03
2019-02-15T07:05:48.751Z,37.63
2019-02-15T07:08:22.990Z,38.90
2019-02-15T07:10:57.296Z,38.00
2019-02-15T07:13:31.633Z,37.67
2019-02-15T07:16:07.900Z,39.20
2019-02-15T07:18:44.052Z,42.33
2019-02-15T07:21:20.007Z,40.20
2019-02-15T07:23:54.772Z,42.10
2019-02-15T07:26:35.587Z,45.13
2019-02-15T07:29:51.386Z,46.55
2019-02-15T07:32:26.521Z,46.00
2019-02-15T07:35:02.575Z,44.80
2019-02-15T07:37:37.400Z,47.27
2019-02-15T07:40:13.536Z,47.77
2019-02-15T07:42:50.716Z,47.30
2019-02-15T07:45:25.494Z,48.53
2019-02-15T07:48:03.490Z,47.55
2019-02-15T07:50:38.102Z,49.90
2019-02-15T07:53:13.150Z,49.37
2019-02-15T07:55:47.984Z,49.47
2019-02-15T07:58:22.939Z,48.93
2019-02-15T08:00:58.647Z,50.53
2019-02-15T08:03:35.315Z,52.17
2019-02-15T08:06:10.650Z,50.60
2019-02-15T08:08:45.456Z,51.93
2019-02-15T08:11:20.765Z,49.95
2019-02-15T08:13:55.865Z,49.55
2019-02-15T08:16:31.529Z,53.65
2019-02-15T08:19:06.686Z,51.87
2019-02-15T08:21:41.819Z,51.60
2019-02-15T08:24:16.572Z,51.47
2019-02-15T08:26:51.477Z,46.13
2019-02-15T08:29:25.886Z,46.93
2019-02-15T08:32:00.750Z,43.70
2019-02-15T08:34:35.554Z,41.97
2019-02-15T08:37:11.310Z,42.33
2019-02-15T08:39:46.033Z,46.77
2019-02-15T08:42:20.449Z,46.13
2019-02-15T08:44:55.229Z,46.07
2019-02-15T08:47:29.816Z,45.97
2019-02-15T08:50:04.337Z,47.13
2019-02-15T08:52:40.483Z,47.23
2019-02-15T08:55:15.581Z,46.57
2019-02-15T08:57:50.353Z,45.83
2019-02-15T09:00:25.245Z,46.30
2019-02-15T09:03:00.029Z,47.93
2019-02-15T09:05:35.696Z,51.03
2019-02-15T09:08:11.168Z,51.90
2019-02-15T09:10:46.722Z,54.60
2019-02-15T09:13:22.357Z,52.48
2019-02-15T09:15:58.805Z,53.50
2019-02-15T09:18:37.292Z,57.20
2019-02-15T09:21:12.273Z,58.07
2019-02-15T09:23:49.315Z,60.33
2019-02-15T09:26:25.627Z,60.37
2019-02-15T09:29:02.570Z,60.67
2019-02-15T09:31:41.348Z,64.77
2019-02-15T09:34:16.365Z,66.03
2019-02-15T09:36:53.945Z,68.80
2019-02-15T09:39:28.793Z,69.77
2019-02-15T09:42:03.263Z,71.80
2019-02-15T09:44:38.184Z,72.05
2019-02-15T09:47:14.648Z,76.37
2019-02-15T09:49:50.489Z,72.90
2019-02-15T09:52:29.739Z,77.45
2019-02-15T09:55:06.132Z,75.50
2019-02-15T09:57:42.568Z,78.52
2019-02-15T10:00:20.793Z,75.30
2019-02-15T10:02:57.723Z,77.77
2019-02-15T10:05:35.288Z,71.70
2019-02-15T10:08:10.949Z,72.27
2019-02-15T10:10:46.075Z,74.97
2019-02-15T10:13:22.518Z,73.13
2019-02-15T10:15:59.902Z,70.13
2019-02-15T10:18:35.229Z,71.80
2019-02-15T10:21:11.126Z,70.00
2019-02-15T10:32:34.242Z,70.20
2019-02-15T10:35:21.369Z,70.80
2019-02-15T10:37:56.245Z,71.02
2019-02-15T10:40:31.253Z,72.00
2019-02-15T10:43:06.849Z,72.40
2019-02-15T10:45:42.406Z,74.33
2019-02-15T10:48:18.582Z,74.77
2019-02-15T10:50:53.628Z,71.93
2019-02-15T10:53:32.142Z,72.00
2019-02-15T10:56:07.333Z,74.82
2019-02-15T10:58:42.925Z,72.37
2019-02-15T11:01:18.204Z,75.27
2019-02-15T11:03:54.640Z,75.53
2019-02-15T11:06:29.848Z,76.90
2019-02-15T11:09:05.862Z,79.60
2019-02-15T11:11:41.682Z,78.63
2019-02-15T11:14:18.885Z,77.17
2019-02-15T11:16:58.033Z,78.20
2019-02-15T11:19:32.781Z,80.90
2019-02-15T11:22:07.931Z,81.57
2019-02-15T11:24:47.341Z,76.10
2019-02-15T11:27:23.099Z,74.60
2019-02-15T11:29:58.509Z,80.50
2019-02-15T11:32:34.294Z,84.40
2019-02-15T11:35:11.576Z,77.82
2019-02-15T11:37:49.381Z,79.80
2019-02-15T11:40:26.697Z,80.00
2019-02-15T11:43:04.208Z,80.57
2019-02-15T11:45:39.451Z,80.53
2019-02-15T11:48:15.372Z,80.30
2019-02-15T11:50:50.687Z,78.87
2019-02-15T11:53:26.309Z,79.27
2019-02-15T11:56:01.991Z,77.27
2019-02-15T11:58:37.958Z,76.27
2019-02-15T12:01:13.524Z,78.13
2019-02-15T12:03:49.555Z,79.93
2019-02-15T12:06:24.809Z,79.63
2019-02-15T12:09:00.712Z,78.50
2019-02-15T12:11:35.822Z,78.50
2019-02-15T12:14:13.190Z,78.53
2019-02-15T12:16:49.172Z,77.57
2019-02-15T12:19:25.015Z,79.37
2019-02-15T12:22:02.523Z,82.93
2019-02-15T12:24:40.263Z,80.90
2019-02-15T12:27:19.055Z,76.87
2019-02-15T12:29:56.081Z,78.23
2019-02-15T12:32:31.531Z,79.53
2019-02-15T12:35:16.501Z,79.07
2019-02-15T12:37:54.583Z,83.65
2019-02-15T12:40:30.499Z,80.03
2019-02-15T12:43:10.299Z,76.00
2019-02-15T12:45:46.314Z,75.30
2019-02-15T12:48:21.551Z,66.53
2019-02-15T12:51:02.511Z,70.57
2019-02-15T12:53:37.935Z,64.97
2019-02-15T12:56:15.303Z,62.30
2019-02-15T12:58:50.834Z,58.77
2019-02-15T13:01:28.837Z,58.23
2019-02-15T13:04:05.273Z,60.88
2019-02-15T13:06:43.134Z,58.30
2019-02-15T13:09:21.274Z,53.43
2019-02-15T13:11:58.306Z,53.57
2019-02-15T13:14:36.211Z,53.15
2019-02-15T13:17:14.172Z,51.93
2019-02-15T13:19:47.428Z,52.08
2019-02-15T13:22:22.360Z,51.03
2019-02-15T13:24:57.763Z,49.50
2019-02-15T13:27:35.263Z,49.63
2019-02-15T13:30:12.916Z,49.13
2019-02-15T13:32:48.751Z,48.63
2019-02-15T13:35:30.150Z,47.43
2019-02-15T13:38:06.525Z,49.23
2019-02-15T13:40:42.314Z,47.50
2019-02-15T13:43:24.835Z,45.23
2019-02-15T13:46:01.137Z,45.83
2019-02-15T13:48:36.747Z,47.07
2019-02-15T13:51:22.234Z,44.95
2019-02-15T13:53:58.463Z,45.88
2019-02-15T13:56:35.618Z,45.47
2019-02-15T13:59:11.630Z,45.20
2019-02-15T14:01:48.083Z,43.90
2019-02-15T14:04:26.491Z,45.20
2019-02-15T14:07:04.727Z,45.57
2019-02-15T14:09:40.240Z,46.80
2019-02-15T14:12:19.328Z,45.07
2019-02-15T14:17:48.709Z,43.37
2019-02-15T14:26:10.911Z,44.17
2019-02-15T14:28:47.570Z,41.87
2019-02-15T14:31:22.765Z,41.70
2019-02-15T14:34:00.480Z,44.03
2019-02-15T14:36:37.673Z,40.67
2019-02-15T14:39:16.784Z,44.37
2019-02-15T14:41:56.031Z,41.00
2019-02-15T14:44:28.715Z,41.47
2019-02-15T14:47:05.274Z,40.13
2019-02-15T14:49:39.901Z,41.65
2019-02-15T14:52:16.747Z,42.07
2019-02-15T14:54:51.642Z,40.60
2019-02-15T14:57:26.172Z,41.83
2019-02-15T15:00:02.724Z,39.57
2019-02-15T15:02:37.784Z,40.52
2019-02-15T15:05:13.967Z,40.37
2019-02-15T15:07:48.568Z,43.87
2019-02-15T15:10:25.953Z,41.77
2019-02-15T15:12:58.640Z,43.00
2019-02-15T15:15:33.850Z,41.50
2019-02-15T15:18:15.062Z,42.85
2019-02-15T15:20:52.463Z,43.67
2019-02-15T15:23:25.183Z,45.50
2019-02-15T15:25:59.644Z,45.67
2019-02-15T15:28:33.999Z,45.20
2019-02-15T15:31:11.254Z,49.00
2019-02-15T15:33:47.297Z,50.20
2019-02-15T15:36:21.947Z,51.77
2019-02-15T15:39:03.204Z,58.73
2019-02-15T15:41:39.390Z,57.20
2019-02-15T15:44:14.528Z,59.27
2019-02-15T15:46:48.748Z,60.48
2019-02-15T15:49:28.464Z,70.67
2019-02-15T15:52:02.782Z,65.23
2019-02-15T15:54:37.151Z,69.60
2019-02-15T15:57:11.363Z,77.10
2019-02-15T15:59:45.652Z,69.83
2019-02-15T16:02:20.078Z,78.37
2019-02-15T16:04:54.385Z,71.73
2019-02-15T16:07:30.443Z,76.67
2019-02-15T16:10:04.671Z,77.42
2019-02-15T16:12:39.198Z,77.97
2019-02-15T16:15:17.410Z,85.93
2019-02-15T16:17:51.464Z,84.20
2019-02-15T16:20:25.826Z,84.05
2019-02-15T16:23:02.845Z,87.23
2019-02-15T16:25:37.505Z,86.33
2019-02-15T16:28:12.052Z,89.90
2019-02-15T16:30:46.234Z,89.27
2019-02-15T16:33:20.729Z,89.00
2019-02-15T16:36:00.642Z,81.60
2019-02-15T16:38:33.681Z,88.35
2019-02-15T16:41:15.678Z,88.58
2019-02-15T16:43:47.081Z,87.60
2019-02-15T16:46:24.040Z,87.87
2019-02-15T16:48:58.422Z,91.92
2019-02-15T16:51:35.117Z,90.00
2019-02-15T16:54:07.941Z,86.57
2019-02-15T16:56:48.142Z,84.97
2019-02-15T16:59:25.896Z,81.77
2019-02-15T17:02:00.122Z,83.93
2019-02-15T17:04:34.696Z,81.20
2019-02-15T17:07:18.349Z,83.37
2019-02-15T17:09:50.663Z,85.72
2019-02-15T17:12:25.137Z,84.67
2019-02-15T17:14:59.676Z,86.17
2019-02-15T17:17:35.925Z,91.57
2019-02-15T17:20:11.877Z,83.63
2019-02-15T17:22:46.209Z,85.42
2019-02-15T17:25:20.914Z,81.43
2019-02-15T17:27:55.207Z,78.72
2019-02-15T17:30:29.541Z,80.87
2019-02-15T17:33:03.846Z,75.83
2019-02-15T17:35:38.229Z,75.07
2019-02-15T17:38:43.751Z,73.40
2019-02-15T17:41:02.541Z,71.72
2019-02-15T17:43:37.344Z,70.13
2019-02-15T17:46:15.670Z,69.20
2019-02-15T17:49:00.342Z,67.83
2019-02-15T17:51:27.356Z,66.30
2019-02-15T17:54:01.707Z,67.83
2019-02-15T17:56:36.223Z,70.57
2019-02-15T17:59:13.175Z,71.87
2019-02-15T18:01:51.156Z,72.75
2019-02-15T18:04:28.000Z,69.70
2019-02-15T18:07:07.554Z,70.07
2019-02-15T18:09:44.765Z,71.27
2019-02-15T18:12:19.363Z,69.27
2019-02-15T18:14:57.895Z,70.42
2019-02-15T18:17:33.380Z,67.73
2019-02-15T18:20:08.451Z,64.15
2019-02-15T18:22:42.801Z,61.83
2019-02-15T18:25:17.145Z,58.08
2019-02-15T18:27:51.748Z,58.17
2019-02-15T18:30:29.106Z,59.77
2019-02-15T18:33:01.623Z,56.30
2019-02-15T18:35:35.933Z,54.37
2019-02-15T18:38:10.286Z,55.03
2019-02-15T18:40:44.695Z,54.37
2019-02-15T18:43:19.116Z,55.87
2019-02-15T18:45:56.015Z,55.50
2019-02-15T18:48:31.032Z,55.60
2019-02-15T18:51:10.938Z,54.20
2019-02-15T18:53:48.070Z,53.85
2019-02-15T18:56:22.725Z,55.47
2019-02-15T18:58:57.083Z,55.13
2019-02-15T19:01:34.702Z,55.40
2019-02-15T19:04:09.292Z,55.43
2019-02-15T19:06:43.598Z,51.67
2019-02-15T19:09:20.504Z,51.97
2019-02-15T19:11:53.583Z,51.37
2019-02-15T19:14:27.986Z,51.63
2019-02-15T19:17:02.263Z,51.37
2019-02-15T19:19:40.208Z,49.40
2019-02-15T19:22:12.061Z,50.17
2019-02-15T19:24:46.181Z,51.13
2019-02-15T19:27:20.312Z,50.90
2019-02-15T19:29:54.815Z,47.80
2019-02-15T19:32:32.126Z,48.87
2019-02-15T19:35:07.323Z,46.23
2019-02-15T19:37:39.575Z,45.17
2019-02-15T19:40:16.876Z,46.03
2019-02-15T19:42:52.755Z,46.50
2019-02-15T19:45:29.419Z,48.57
2019-02-15T19:48:03.701Z,46.17
2019-02-15T19:50:38.076Z,46.60
2019-02-15T19:53:12.431Z,44.40
2019-02-15T19:55:48.756Z,43.33
2019-02-15T19:58:22.258Z,43.83
2019-02-15T20:00:57.510Z,43.40
2019-02-15T20:03:33.145Z,43.23
2019-02-15T20:06:07.889Z,40.33
2019-02-15T20:08:42.353Z,40.90
2019-02-15T20:11:16.769Z,41.13
2019-02-15T20:13:53.387Z,38.78
2019-02-15T20:16:28.175Z,39.07
2019-02-15T20:19:02.534Z,38.10
2019-02-15T20:21:36.875Z,37.00
2019-02-15T20:24:11.089Z,37.30
2019-02-15T20:26:45.579Z,39.70
2019-02-15T20:29:23.291Z,37.47
2019-02-15T20:31:57.722Z,38.30
2019-02-15T20:34:34.572Z,37.55
2019-02-15T20:37:09.383Z,34.17
2019-02-15T20:39:44.445Z,35.97
2019-02-15T20:42:18.655Z,36.50
2019-02-15T20:44:56.769Z,36.03
2019-02-15T20:47:31.596Z,35.38
2019-02-15T20:50:05.871Z,35.50
2019-02-15T20:52:43.919Z,35.97
2019-02-15T20:55:20.076Z,36.27
2019-02-15T20:57:59.824Z,35.13
2019-02-15T21:00:32.956Z,34.93
2019-02-15T21:03:07.540Z,34.37
2019-02-15T21:05:41.905Z,32.47
2019-02-15T21:08:18.758Z,33.23
2019-02-15T21:10:55.438Z,33.75
2019-02-15T21:13:28.405Z,34.73
2019-02-15T21:16:02.759Z,33.30
2019-02-15T21:18:43.145Z,34.10
2019-02-15T21:21:17.259Z,33.20
2019-02-15T21:23:51.538Z,33.63
2019-02-15T21:26:25.805Z,34.90
2019-02-15T21:29:00.366Z,33.57
2019-02-15T21:31:36.374Z,34.53
2019-02-15T21:34:10.818Z,33.13
2019-02-15T21:36:45.042Z,33.20
2019-02-15T21:39:19.153Z,31.57
2019-02-15T21:41:55.045Z,32.63
2019-02-15T21:44:29.466Z,30.63
2019-02-15T21:47:05.930Z,33.23
2019-02-15T21:49:40.184Z,32.77
2019-02-15T21:52:14.439Z,32.43
2019-02-15T21:54:48.502Z,32.38
2019-02-15T21:57:22.595Z,31.47
2019-02-15T21:59:56.951Z,31.12
2019-02-15T22:02:31.933Z,32.07
2019-02-15T22:05:06.815Z,31.90
2019-02-15T22:07:45.853Z,30.20
2019-02-15T22:10:21.093Z,30.53
2019-02-15T22:12:57.525Z,30.57
2019-02-15T22:15:32.925Z,29.37
2019-02-15T22:18:09.489Z,30.63
2019-02-15T22:20:44.000Z,28.77
2019-02-15T22:23:18.216Z,28.43
2019-02-15T22:26:02.830Z,29.00
2019-02-15T22:28:37.046Z,27.57
2019-02-15T22:31:13.047Z,28.57
2019-02-15T22:33:48.866Z,29.50
2019-02-15T22:36:23.562Z,27.65
2019-02-15T22:38:57.758Z,28.50
2019-02-15T22:41:32.749Z,29.43
2019-02-15T22:44:06.804Z,29.00
2019-02-15T22:46:40.702Z,29.00
2019-02-15T22:49:14.448Z,30.30
2019-02-15T22:51:48.467Z,31.10
2019-02-15T22:54:23.664Z,29.53
2019-02-15T22:56:57.751Z,30.70
2019-02-15T22:59:33.342Z,30.83
2019-02-15T23:02:07.289Z,32.47
2019-02-15T23:04:40.613Z,31.90
2019-02-15T23:07:14.789Z,31.87
2019-02-15T23:09:48.707Z,31.17
2019-02-15T23:12:23.606Z,30.87
2019-02-15T23:14:57.268Z,31.67
2019-02-15T23:17:31.198Z,32.00
2019-02-15T23:20:05.680Z,30.60
2019-02-15T23:22:39.419Z,31.97
2019-02-15T23:25:13.301Z,29.77
2019-02-15T23:27:47.082Z,32.10
2019-02-15T23:30:20.601Z,31.27
2019-02-15T23:32:54.634Z,31.33
2019-02-15T23:35:28.312Z,33.28
2019-02-15T23:38:02.490Z,31.97
2019-02-15T23:40:36.846Z,33.33
2019-02-15T23:43:10.870Z,34.30
2019-02-15T23:45:45.033Z,33.53
2019-02-15T23:48:19.446Z,33.03
2019-02-15T23:50:55.211Z,33.23
2019-02-15T23:53:27.883Z,35.70
2019-02-15T23:56:02.310Z,33.70
2019-02-15T23:58:38.754Z,34.97
